createdAt,value
2024-02-07T00:00:07.251Z,98864.00
2024-02-07T00:02:36.384Z,98872.00
2024-02-07T00:05:04.346Z,98870.91
2024-02-07T00:07:32.253Z,98865.94
2024-02-07T00:09:59.798Z,98854.88
2024-02-07T00:12:27.552Z,98866.75
2024-02-07T00:14:55.306Z,98860.41
2024-02-07T00:17:25.760Z,98847.69
2024-02-07T00:19:53.685Z,98855.16
2024-02-07T00:22:21.367Z,98844.63
2024-02-07T00:24:48.919Z,98851.84
2024-02-07T00:27:16.643Z,98846.28
2024-02-07T00:29:44.466Z,98853.22
2024-02-07T00:32:12.230Z,98843.00
2024-02-07T00:34:42.944Z,98844.09
2024-02-07T00:37:10.542Z,98828.38
2024-02-07T00:39:38.457Z,98847.41
2024-02-07T00:42:06.342Z,98814.81
2024-02-07T00:44:34.081Z,98840.22
2024-02-07T00:47:01.857Z,98831.94
2024-02-07T00:49:29.663Z,98821.72
2024-02-07T00:52:00.318Z,98805.69
2024-02-07T00:54:27.801Z,98823.94
2024-02-07T00:56:57.008Z,98813.16
2024-02-07T00:59:24.659Z,98814.56
2024-02-07T01:01:54.314Z,98818.41
2024-02-07T01:04:22.806Z,98811.50
2024-02-07T01:06:50.569Z,98825.03
2024-02-07T01:09:22.379Z,98812.34
2024-02-07T01:11:50.218Z,98810.38
2024-02-07T01:14:19.876Z,98823.94
2024-02-07T01:16:47.614Z,98821.16
2024-02-07T01:19:15.508Z,98873.66
2024-02-07T01:21:43.538Z,98923.25
2024-02-07T01:24:11.401Z,98940.66
2024-02-07T01:26:42.384Z,98949.13
2024-02-07T01:29:09.894Z,98936.47
2024-02-07T01:31:37.661Z,98952.19
2024-02-07T01:34:05.572Z,98958.16
2024-02-07T01:36:33.350Z,98965.66
2024-02-07T01:39:03.088Z,98970.97
2024-02-07T01:41:30.574Z,98989.72
2024-02-07T01:44:00.851Z,98990.03
2024-02-07T01:46:30.224Z,98999.16
2024-02-07T01:48:58.212Z,99021.88
2024-02-07T01:51:26.192Z,98997.56
2024-02-07T01:53:54.015Z,98999.13
2024-02-07T01:56:22.168Z,99008.56
2024-02-07T01:58:50.472Z,99025.97
2024-02-07T02:01:24.593Z,99012.00
2024-02-07T02:03:52.271Z,99006.91
2024-02-07T02:06:20.109Z,99032.16
2024-02-07T02:08:47.972Z,99023.25
2024-02-07T02:11:19.820Z,99025.84
2024-02-07T02:13:55.733Z,99017.63
2024-02-07T02:16:26.648Z,99019.19
2024-02-07T02:18:54.948Z,99039.56
2024-02-07T02:21:28.509Z,99018.25
2024-02-07T02:24:14.554Z,99035.75
2024-02-07T02:27:02.286Z,99046.31
2024-02-07T02:29:42.274Z,99043.34
2024-02-07T02:32:11.318Z,99032.97
2024-02-07T02:34:41.681Z,99043.69
2024-02-07T02:37:10.727Z,99049.03
2024-02-07T02:39:38.349Z,99047.84
2024-02-07T02:42:06.451Z,99043.31
2024-02-07T02:44:37.097Z,99047.56
2024-02-07T02:47:04.963Z,99054.59
2024-02-07T02:49:33.233Z,99051.50
2024-02-07T02:52:00.989Z,99062.53
2024-02-07T02:54:31.488Z,99058.75
2024-02-07T02:57:02.050Z,99072.00
2024-02-07T02:59:31.319Z,99071.25
2024-02-07T03:02:10.233Z,99064.34
2024-02-07T03:04:45.491Z,99050.75
2024-02-07T03:07:31.624Z,99053.97
2024-02-07T03:09:59.066Z,99059.88
2024-02-07T03:12:26.712Z,99072.00
2024-02-07T03:14:54.222Z,99068.66
2024-02-07T03:17:24.560Z,99079.22
2024-02-07T03:19:52.230Z,99072.53
2024-02-07T03:22:19.897Z,99085.19
2024-02-07T03:24:57.523Z,99081.94
2024-02-07T03:27:25.389Z,99074.44
2024-02-07T03:29:52.832Z,99068.06
2024-02-07T03:32:21.576Z,99058.03
2024-02-07T03:34:51.859Z,99072.44
2024-02-07T03:37:20.333Z,99064.25
2024-02-07T03:39:48.354Z,99051.09
2024-02-07T03:42:16.049Z,99046.50
2024-02-07T03:44:45.219Z,99048.38
2024-02-07T03:47:12.799Z,99049.22
2024-02-07T03:49:40.350Z,99033.94
2024-02-07T03:52:10.769Z,99044.59
2024-02-07T03:54:51.246Z,99044.59
2024-02-07T03:57:21.997Z,99043.19
2024-02-07T03:59:50.224Z,99034.03
2024-02-07T04:02:24.214Z,99040.16
2024-02-07T04:04:52.957Z,99039.63
2024-02-07T04:07:28.011Z,99032.75
2024-02-07T04:09:56.700Z,99037.41
2024-02-07T04:12:24.396Z,99043.19
2024-02-07T04:14:52.326Z,99032.13
2024-02-07T04:17:43.853Z,99013.31
2024-02-07T04:20:30.720Z,99015.56
2024-02-07T04:23:19.316Z,98995.00
2024-02-07T04:26:05.514Z,98977.19
2024-02-07T04:28:51.741Z,98970.63
2024-02-07T04:31:37.959Z,98981.53
2024-02-07T04:34:23.883Z,98960.09
2024-02-07T04:37:10.389Z,98959.88
2024-02-07T04:39:59.266Z,98992.44
2024-02-07T04:42:45.537Z,99005.50
2024-02-07T04:48:26.656Z,99011.63
2024-02-07T04:51:13.148Z,98992.28
2024-02-07T04:53:59.309Z,98983.25
2024-02-07T04:56:47.932Z,99015.34
2024-02-07T04:59:34.418Z,98980.75
2024-02-07T05:02:20.673Z,98959.59
2024-02-07T05:05:06.853Z,98967.09
2024-02-07T05:07:53.297Z,98986.81
2024-02-07T05:10:39.466Z,98993.81
2024-02-07T05:13:28.669Z,98977.06
2024-02-07T05:15:56.676Z,98992.06
2024-02-07T05:18:24.750Z,99005.25
2024-02-07T05:20:52.808Z,98994.88
2024-02-07T05:23:21.964Z,99006.63
2024-02-07T05:25:49.921Z,99007.84
2024-02-07T05:28:20.620Z,99022.56
2024-02-07T05:30:48.367Z,99013.31
2024-02-07T05:33:16.082Z,99029.63
2024-02-07T05:35:43.961Z,99016.66
2024-02-07T05:38:11.858Z,99030.53
2024-02-07T05:40:39.592Z,99017.09
2024-02-07T05:43:07.851Z,99011.88
2024-02-07T05:45:38.187Z,99020.38
2024-02-07T05:48:07.124Z,99020.91
2024-02-07T05:50:36.620Z,99027.59
2024-02-07T05:53:04.913Z,99043.38
2024-02-07T05:55:32.922Z,99038.13
2024-02-07T05:58:00.627Z,99043.84
2024-02-07T06:00:28.259Z,99044.81
2024-02-07T06:02:58.722Z,99046.94
2024-02-07T06:05:29.036Z,99048.53
2024-02-07T06:07:57.317Z,99043.28
2024-02-07T06:10:25.033Z,99042.91
2024-02-07T06:12:52.844Z,99046.50
2024-02-07T06:15:20.454Z,99030.94
2024-02-07T06:17:48.363Z,99031.97
2024-02-07T06:20:19.289Z,99045.41
2024-02-07T06:22:49.674Z,99050.06
2024-02-07T06:25:17.659Z,99061.59
2024-02-07T06:27:45.618Z,99046.56
2024-02-07T06:30:14.334Z,99051.97
2024-02-07T06:32:41.914Z,99072.66
2024-02-07T06:35:10.730Z,99053.78
2024-02-07T06:37:41.100Z,99061.41
2024-02-07T06:40:10.228Z,99058.47
2024-02-07T06:42:37.771Z,99057.78
2024-02-07T06:45:06.748Z,99066.66
2024-02-07T06:47:34.438Z,99067.28
2024-02-07T06:50:02.278Z,99065.22
2024-02-07T06:52:30.234Z,99061.06
2024-02-07T06:55:00.330Z,99043.75
2024-02-07T06:57:27.962Z,99044.13
2024-02-07T06:59:55.556Z,99043.38
2024-02-07T07:02:23.147Z,99050.34
2024-02-07T07:04:50.980Z,99041.34
2024-02-07T07:07:18.662Z,99050.81
2024-02-07T07:09:46.315Z,99059.56
2024-02-07T07:12:18.088Z,99060.81
2024-02-07T07:14:47.417Z,99060.16
2024-02-07T07:17:15.149Z,99056.50
2024-02-07T07:19:43.063Z,99062.19
2024-02-07T07:22:12.545Z,99071.31
2024-02-07T07:24:40.328Z,99060.53
2024-02-07T07:27:08.076Z,99063.72
2024-02-07T07:29:38.568Z,99069.88
2024-02-07T07:32:06.866Z,99066.84
2024-02-07T07:34:37.973Z,99069.09
2024-02-07T07:37:05.700Z,99069.78
2024-02-07T07:39:33.372Z,99069.50
2024-02-07T07:42:01.962Z,99077.16
2024-02-07T07:44:29.729Z,99074.75
2024-02-07T07:47:00.060Z,99073.56
2024-02-07T07:49:28.014Z,99064.75
2024-02-07T07:51:56.025Z,99073.22
2024-02-07T07:54:26.089Z,99066.22
2024-02-07T07:56:54.059Z,99069.78
2024-02-07T07:59:22.361Z,99069.31
2024-02-07T08:02:00.925Z,99074.56
2024-02-07T08:04:31.035Z,99071.22
2024-02-07T08:06:58.639Z,99077.78
2024-02-07T08:09:26.184Z,99080.84
2024-02-07T08:11:53.962Z,99070.22
2024-02-07T08:14:21.446Z,99082.94
2024-02-07T08:16:50.277Z,99093.16
2024-02-07T08:19:20.489Z,99084.13
2024-02-07T08:21:48.364Z,99088.91
2024-02-07T08:24:16.176Z,99096.03
2024-02-07T08:26:44.546Z,99102.50
2024-02-07T08:29:14.163Z,99103.72
2024-02-07T08:31:42.616Z,99099.59
2024-02-07T08:34:11.095Z,99100.28
2024-02-07T08:36:41.413Z,99106.59
2024-02-07T08:39:08.843Z,99100.22
2024-02-07T08:41:37.268Z,99100.22
2024-02-07T08:44:05.237Z,99101.78
2024-02-07T08:46:32.799Z,99110.56
2024-02-07T08:49:00.786Z,99103.88
2024-02-07T08:51:28.535Z,99103.81
2024-02-07T08:54:00.046Z,99104.19
2024-02-07T08:56:29.485Z,99101.47
2024-02-07T08:58:57.354Z,99104.34
2024-02-07T09:01:25.352Z,99115.59
2024-02-07T09:03:52.837Z,99116.66
2024-02-07T09:06:20.602Z,99118.63
2024-02-07T09:08:48.832Z,99125.28
2024-02-07T09:11:19.236Z,99129.78
2024-02-07T09:13:47.071Z,99141.28
2024-02-07T09:16:15.097Z,99126.50
2024-02-07T09:18:43.527Z,99129.09
2024-02-07T09:21:11.349Z,99142.31
2024-02-07T09:23:38.952Z,99145.25
2024-02-07T09:26:06.745Z,99142.38
2024-02-07T09:28:38.077Z,99133.88
2024-02-07T09:31:05.918Z,99137.97
2024-02-07T09:33:33.535Z,99145.03
2024-02-07T09:36:01.687Z,99135.22
2024-02-07T09:38:29.333Z,99137.41
2024-02-07T09:41:00.273Z,99139.91
2024-02-07T09:43:28.083Z,99133.03
2024-02-07T09:45:59.521Z,99142.94
2024-02-07T09:48:28.677Z,99131.28
2024-02-07T09:50:59.666Z,99138.16
2024-02-07T09:53:28.163Z,99135.56
2024-02-07T09:55:56.286Z,99126.69
2024-02-07T09:58:25.122Z,99132.03
2024-02-07T10:00:54.093Z,99141.41
2024-02-07T10:03:26.164Z,99147.50
2024-02-07T10:05:58.239Z,99146.22
2024-02-07T10:08:28.412Z,99132.53
2024-02-07T10:10:56.372Z,99128.00
2024-02-07T10:13:25.350Z,99138.59
2024-02-07T10:15:54.005Z,99141.47
2024-02-07T10:18:25.084Z,99136.47
2024-02-07T10:20:54.202Z,99131.84
2024-02-07T10:23:22.496Z,99132.91
2024-02-07T10:25:51.362Z,99126.44
2024-02-07T10:28:19.458Z,99129.31
2024-02-07T10:30:57.630Z,99132.88
2024-02-07T10:33:41.113Z,99118.25
2024-02-07T10:36:13.178Z,99121.25
2024-02-07T10:38:41.890Z,99111.81
2024-02-07T10:41:09.636Z,99108.16
2024-02-07T10:43:38.652Z,99123.31
2024-02-07T10:46:16.414Z,99130.22
2024-02-07T10:48:47.267Z,99135.53
2024-02-07T10:51:15.441Z,99140.63
2024-02-07T10:53:43.782Z,99167.47
2024-02-07T10:56:19.509Z,99183.22
2024-02-07T10:58:47.909Z,99215.97
2024-02-07T11:01:16.256Z,99178.41
2024-02-07T11:03:47.212Z,99191.16
2024-02-07T11:06:15.465Z,99179.28
2024-02-07T11:08:47.643Z,99189.03
2024-02-07T11:11:16.654Z,99178.41
2024-02-07T11:13:45.697Z,99186.91
2024-02-07T11:16:13.810Z,99201.16
2024-02-07T11:18:41.811Z,99200.38
2024-02-07T11:21:15.624Z,99197.41
2024-02-07T11:23:47.866Z,99200.81
2024-02-07T11:26:17.333Z,99208.19
2024-02-07T11:28:46.342Z,99217.59
2024-02-07T11:31:16.477Z,99210.25
2024-02-07T11:33:48.979Z,99219.69
2024-02-07T11:36:20.460Z,99215.25
2024-02-07T11:38:50.187Z,99214.81
2024-02-07T11:41:20.248Z,99215.63
2024-02-07T11:43:50.865Z,99212.41
2024-02-07T11:46:19.281Z,99208.25
2024-02-07T11:48:53.404Z,99220.78
2024-02-07T11:51:25.587Z,99208.75
2024-02-07T11:53:59.608Z,99202.00
2024-02-07T11:56:28.177Z,99207.25
2024-02-07T11:58:57.327Z,99196.53
2024-02-07T12:01:28.397Z,99197.38
2024-02-07T12:03:57.380Z,99199.31
2024-02-07T12:06:28.126Z,99215.34
2024-02-07T12:08:55.897Z,99205.00
2024-02-07T12:11:23.465Z,99216.13
2024-02-07T12:13:51.588Z,99218.03
2024-02-07T12:16:21.372Z,99220.88
2024-02-07T12:18:49.890Z,99222.31
2024-02-07T12:21:17.892Z,99215.19
2024-02-07T12:23:48.591Z,99226.03
2024-02-07T12:26:24.406Z,99215.84
2024-02-07T12:28:56.460Z,99223.59
2024-02-07T12:31:26.591Z,99226.09
2024-02-07T12:33:57.266Z,99222.03
2024-02-07T12:36:25.223Z,99238.03
2024-02-07T12:38:55.602Z,99246.94
2024-02-07T12:41:23.551Z,99257.81
2024-02-07T12:43:51.510Z,99248.75
2024-02-07T12:46:19.533Z,99253.53
2024-02-07T12:48:47.353Z,99260.22
2024-02-07T12:51:16.243Z,99264.03
2024-02-07T12:53:44.331Z,99270.72
2024-02-07T12:56:20.412Z,99277.94
2024-02-07T12:58:48.526Z,99294.88
2024-02-07T13:01:24.984Z,99293.03
2024-02-07T13:03:57.279Z,99301.00
2024-02-07T13:06:25.688Z,99306.47
2024-02-07T13:08:53.580Z,99321.41
2024-02-07T13:11:24.129Z,99333.47
2024-02-07T13:13:52.160Z,99316.03
2024-02-07T13:16:24.082Z,99335.13
2024-02-07T13:18:55.016Z,99325.47
2024-02-07T13:21:22.621Z,99321.22
2024-02-07T13:23:50.266Z,99328.38
2024-02-07T13:26:23.372Z,99338.00
2024-02-07T13:28:54.646Z,99335.25
2024-02-07T13:31:22.590Z,99336.06
2024-02-07T13:33:50.643Z,99351.16
2024-02-07T13:36:18.364Z,99352.41
2024-02-07T13:38:46.471Z,99365.44
2024-02-07T13:41:20.689Z,99350.25
2024-02-07T13:43:48.975Z,99369.56
2024-02-07T13:46:20.867Z,99369.38
2024-02-07T13:48:48.566Z,99370.81
2024-02-07T13:51:16.624Z,99372.72
2024-02-07T13:53:44.611Z,99385.97
2024-02-07T13:56:12.778Z,99376.72
2024-02-07T13:58:40.499Z,99384.94
2024-02-07T14:01:08.942Z,99384.31
2024-02-07T14:03:39.349Z,99385.75
2024-02-07T14:06:07.989Z,99393.34
2024-02-07T14:08:36.460Z,99390.22
2024-02-07T14:11:05.677Z,99397.34
2024-02-07T14:13:33.886Z,99398.63
2024-02-07T14:16:01.700Z,99387.50
2024-02-07T14:18:29.502Z,99405.75
2024-02-07T14:21:00.434Z,99401.59
2024-02-07T14:23:28.646Z,99401.63
2024-02-07T14:25:56.402Z,99422.81
2024-02-07T14:28:24.618Z,99410.44
2024-02-07T14:30:54.080Z,99418.03
2024-02-07T14:33:22.180Z,99416.34
2024-02-07T14:35:50.297Z,99423.50
2024-02-07T14:38:23.714Z,99431.31
2024-02-07T14:40:51.640Z,99427.75
2024-02-07T14:43:19.675Z,99435.56
2024-02-07T14:45:47.842Z,99447.09
2024-02-07T14:48:15.918Z,99434.53
2024-02-07T14:50:44.255Z,99445.84
2024-02-07T14:53:12.409Z,99446.94
2024-02-07T14:55:43.555Z,99450.72
2024-02-07T14:58:11.723Z,99452.41
2024-02-07T15:00:40.409Z,99457.03
2024-02-07T15:03:08.649Z,99480.75
2024-02-07T15:05:36.538Z,99458.91
2024-02-07T15:08:05.051Z,99470.91
2024-02-07T15:10:33.006Z,99474.25
2024-02-07T15:13:03.676Z,99478.88
2024-02-07T15:15:31.493Z,99475.94
2024-02-07T15:17:59.604Z,99469.84
2024-02-07T15:20:27.236Z,99472.78
2024-02-07T15:22:55.098Z,99476.38
2024-02-07T15:25:24.211Z,99482.66
2024-02-07T15:27:51.988Z,99489.34
2024-02-07T15:30:22.390Z,99498.59
2024-02-07T15:32:50.298Z,99500.28
2024-02-07T15:35:18.505Z,99507.22
2024-02-07T15:37:46.610Z,99510.34
2024-02-07T15:40:14.484Z,99521.25
2024-02-07T15:42:43.930Z,99523.78
2024-02-07T15:45:12.021Z,99516.84
2024-02-07T15:47:42.387Z,99531.31
2024-02-07T15:50:10.950Z,99545.41
2024-02-07T15:52:38.693Z,99547.06
2024-02-07T15:55:07.477Z,99542.25
2024-02-07T15:57:35.316Z,99555.69
2024-02-07T16:00:02.947Z,99551.69
2024-02-07T16:02:44.619Z,99560.88
2024-02-07T16:05:12.764Z,99570.31
2024-02-07T16:07:40.781Z,99565.06
2024-02-07T16:10:10.528Z,99574.53
2024-02-07T16:12:38.980Z,99582.47
2024-02-07T16:15:08.437Z,99591.88
2024-02-07T16:17:36.604Z,99586.41
2024-02-07T16:20:09.809Z,99589.97
2024-02-07T16:22:37.731Z,99602.53
2024-02-07T16:25:06.126Z,99610.88
2024-02-07T16:27:33.822Z,99616.13
2024-02-07T16:30:02.474Z,99616.31
2024-02-07T16:32:30.286Z,99632.66
2024-02-07T16:34:58.305Z,99633.06
2024-02-07T16:37:28.740Z,99638.41
2024-02-07T16:39:56.440Z,99641.59
2024-02-07T16:42:24.077Z,99646.38
2024-02-07T16:44:52.540Z,99654.34
2024-02-07T16:47:20.040Z,99658.59
2024-02-07T16:49:47.834Z,99654.28
2024-02-07T16:52:15.941Z,99655.69
2024-02-07T16:54:46.528Z,99668.06
2024-02-07T16:57:14.800Z,99670.03
2024-02-07T16:59:43.954Z,99682.25
2024-02-07T17:02:11.857Z,99686.81
2024-02-07T17:04:39.856Z,99676.94
2024-02-07T17:07:07.533Z,99687.88
2024-02-07T17:09:35.295Z,99676.81
2024-02-07T17:12:05.695Z,99689.03
2024-02-07T17:14:35.764Z,99682.81
2024-02-07T17:17:06.386Z,99684.84
2024-02-07T17:19:35.110Z,99676.44
2024-02-07T17:22:04.210Z,99680.31
2024-02-07T17:24:31.737Z,99683.50
2024-02-07T17:27:01.738Z,99689.53
2024-02-07T17:29:33.817Z,99690.38
2024-02-07T17:32:01.929Z,99701.44
2024-02-07T17:34:29.814Z,99707.88
2024-02-07T17:36:58.053Z,99704.06
2024-02-07T17:39:27.299Z,99713.44
2024-02-07T17:41:55.010Z,99710.84
2024-02-07T17:44:23.064Z,99710.16
2024-02-07T17:46:53.300Z,99710.41
2024-02-07T17:49:21.595Z,99713.97
2024-02-07T17:51:49.344Z,99716.69
2024-02-07T17:54:17.015Z,99721.00
2024-02-07T17:56:44.571Z,99723.81
2024-02-07T17:59:12.413Z,99727.56
2024-02-07T18:01:40.348Z,99727.97
2024-02-07T18:04:10.768Z,99730.91
2024-02-07T18:06:39.640Z,99730.25
2024-02-07T18:09:07.483Z,99725.84
2024-02-07T18:11:35.353Z,99728.63
2024-02-07T18:14:03.220Z,99723.59
2024-02-07T18:16:31.084Z,99725.00
2024-02-07T18:18:59.025Z,99733.34
2024-02-07T18:21:29.401Z,99732.44
2024-02-07T18:23:57.021Z,99740.03
2024-02-07T18:26:25.269Z,99736.56
2024-02-07T18:28:52.895Z,99739.28
2024-02-07T18:31:20.542Z,99730.38
2024-02-07T18:33:48.471Z,99736.91
2024-02-07T18:36:16.211Z,99735.63
2024-02-07T18:38:48.926Z,99748.38
2024-02-07T18:41:16.889Z,99749.19
2024-02-07T18:43:44.448Z,99750.53
2024-02-07T18:46:12.293Z,99748.38
2024-02-07T18:48:40.233Z,99751.47
2024-02-07T18:51:08.014Z,99756.25
2024-02-07T18:53:35.572Z,99756.81
2024-02-07T18:56:07.002Z,99759.31
2024-02-07T18:58:37.026Z,99767.59
2024-02-07T19:01:05.065Z,99769.75
2024-02-07T19:03:36.429Z,99774.44
2024-02-07T19:06:07.830Z,99772.25
2024-02-07T19:08:36.406Z,99777.03
2024-02-07T19:11:07.204Z,99775.19
2024-02-07T19:13:35.043Z,99781.19
2024-02-07T19:16:03.036Z,99784.25
2024-02-07T19:18:33.005Z,99785.31
2024-02-07T19:21:00.779Z,99784.22
2024-02-07T19:23:28.599Z,99787.06
2024-02-07T19:25:59.119Z,99787.34
2024-02-07T19:28:29.461Z,99788.84
2024-02-07T19:30:57.196Z,99791.56
2024-02-07T19:33:24.779Z,99787.16
2024-02-07T19:35:52.257Z,99790.25
2024-02-07T19:38:20.126Z,99781.31
2024-02-07T19:40:48.019Z,99794.56
2024-02-07T19:43:15.711Z,99798.84
2024-02-07T19:45:46.130Z,99799.25
2024-02-07T19:48:13.978Z,99800.50
2024-02-07T19:50:42.323Z,99797.78
2024-02-07T19:53:10.325Z,99802.88
2024-02-07T19:55:37.883Z,99803.22
2024-02-07T19:58:05.830Z,99805.69
2024-02-07T20:00:33.755Z,99796.88
2024-02-07T20:03:04.529Z,99802.16
2024-02-07T20:05:32.420Z,99807.78
2024-02-07T20:08:00.537Z,99812.56
2024-02-07T20:10:28.284Z,99812.19
2024-02-07T20:12:55.952Z,99826.31
2024-02-07T20:15:23.550Z,99820.16
2024-02-07T20:17:51.142Z,99823.06
2024-02-07T20:20:21.928Z,99819.59
2024-02-07T20:22:49.754Z,99822.97
2024-02-07T20:25:17.439Z,99832.38
2024-02-07T20:27:45.269Z,99827.88
2024-02-07T20:30:13.868Z,99833.78
2024-02-07T20:32:41.401Z,99833.03
2024-02-07T20:35:09.969Z,99836.31
2024-02-07T20:37:40.145Z,99847.19
2024-02-07T20:40:08.935Z,99848.63
2024-02-07T20:42:36.472Z,99851.88
2024-02-07T20:45:04.821Z,99847.56
2024-02-07T20:47:36.601Z,99855.38
2024-02-07T20:50:07.844Z,99860.16
2024-02-07T20:52:35.544Z,99862.88
2024-02-07T20:55:06.668Z,99858.38
2024-02-07T20:57:35.652Z,99855.53
2024-02-07T21:00:04.443Z,99871.50
2024-02-07T21:02:33.578Z,99863.53
2024-02-07T21:05:02.284Z,99865.50
2024-02-07T21:07:30.314Z,99869.31
2024-02-07T21:09:58.167Z,99874.78
2024-02-07T21:12:28.458Z,99868.97
2024-02-07T21:14:56.188Z,99884.16
2024-02-07T21:17:23.937Z,99879.28
2024-02-07T21:19:51.732Z,99887.25
2024-02-07T21:22:19.420Z,99889.44
2024-02-07T21:24:47.112Z,99888.94
2024-02-07T21:27:14.736Z,99894.94
2024-02-07T21:29:45.142Z,99895.97
2024-02-07T21:32:12.870Z,99902.91
2024-02-07T21:34:40.739Z,99905.25
2024-02-07T21:37:08.285Z,99904.78
2024-02-07T21:39:36.211Z,99897.94
2024-02-07T21:42:04.351Z,99913.13
2024-02-07T21:44:31.919Z,99907.88
2024-02-07T21:47:02.226Z,99910.03
2024-02-07T21:49:29.931Z,99913.78
2024-02-07T21:51:57.909Z,99919.03
2024-02-07T21:54:25.440Z,99904.03
2024-02-07T21:56:53.198Z,99922.50
2024-02-07T21:59:20.908Z,99911.28
2024-02-07T22:01:48.543Z,99917.06
2024-02-07T22:04:19.261Z,99909.88
2024-02-07T22:06:50.385Z,99907.22
2024-02-07T22:09:17.942Z,99914.06
2024-02-07T22:11:45.678Z,99918.19
2024-02-07T22:14:13.987Z,99919.88
2024-02-07T22:16:41.784Z,99917.16
2024-02-07T22:19:09.479Z,99924.63
2024-02-07T22:21:40.542Z,99925.69
2024-02-07T22:24:08.851Z,99934.84
2024-02-07T22:26:40.043Z,99932.72
2024-02-07T22:29:07.853Z,99928.59
2024-02-07T22:31:39.708Z,99932.06
2024-02-07T22:34:07.849Z,99926.34
2024-02-07T22:36:35.891Z,99921.09
2024-02-07T22:39:07.335Z,99930.31
2024-02-07T22:41:34.848Z,99934.69
2024-02-07T22:44:02.252Z,99933.47
2024-02-07T22:46:29.828Z,99927.84
2024-02-07T22:48:58.050Z,99928.47
2024-02-07T22:51:25.746Z,99931.13
2024-02-07T22:53:53.260Z,99928.84
2024-02-07T22:56:23.659Z,99931.66
2024-02-07T22:58:51.272Z,99937.97
2024-02-07T23:01:18.820Z,99938.91
2024-02-07T23:03:46.553Z,99938.97
2024-02-07T23:06:14.218Z,99947.97
2024-02-07T23:08:42.092Z,99953.31
2024-02-07T23:11:09.949Z,99953.38
2024-02-07T23:13:40.268Z,99958.31
2024-02-07T23:16:08.288Z,99960.50
2024-02-07T23:18:37.232Z,99964.75
2024-02-07T23:21:05.077Z,99966.28
2024-02-07T23:23:33.011Z,99970.59
2024-02-07T23:26:00.889Z,99975.06
2024-02-07T23:28:28.704Z,99975.28
2024-02-07T23:30:58.900Z,99980.00
2024-02-07T23:33:26.912Z,99984.84
2024-02-07T23:35:56.473Z,99977.94
2024-02-07T23:38:24.207Z,99974.34
2024-02-07T23:40:52.058Z,99984.72
2024-02-07T23:43:19.863Z,99982.53
2024-02-07T23:45:47.636Z,99983.94
2024-02-07T23:48:18.336Z,99987.34
2024-02-07T23:50:45.982Z,99993.25
2024-02-07T23:53:13.642Z,99999.56
2024-02-07T23:55:41.149Z,99996.69
2024-02-07T23:58:11.360Z,99995.31
